sensor_id;sensor_type;location;lat;lon;timestamp;P1;durP1;ratioP1;P2;durP2;ratioP2
71207;SDS011;58938;49.868;8.646;2022-11-20T00:01:48;29.43;;;14.10;;
71207;SDS011;58938;49.868;8.646;2022-11-20T00:04:14;29.13;;;14.30;;
71207;SDS011;58938;49.868;8.646;2022-11-20T00:06:39;28.08;;;14.23;;
71207;SDS011;58938;49.868;8.646;2022-11-20T00:09:05;27.37;;;13.93;;
71207;SDS011;58938;49.868;8.646;2022-11-20T00:11:31;30.80;;;13.30;;
71207;SDS011;58938;49.868;8.646;2022-11-20T00:13:57;29.85;;;13.45;;
71207;SDS011;58938;49.868;8.646;2022-11-20T00:16:25;30.85;;;13.13;;
71207;SDS011;58938;49.868;8.646;2022-11-20T00:18:52;26.92;;;12.55;;
71207;SDS011;58938;49.868;8.646;2022-11-20T00:21:22;27.30;;;12.27;;
71207;SDS011;58938;49.868;8.646;2022-11-20T00:23:50;26.25;;;12.60;;
71207;SDS011;58938;49.868;8.646;2022-11-20T00:26:18;29.88;;;13.50;;
71207;SDS011;58938;49.868;8.646;2022-11-20T00:28:52;31.52;;;13.32;;
71207;SDS011;58938;49.868;8.646;2022-11-20T00:31:19;26.50;;;12.55;;
71207;SDS011;58938;49.868;8.646;2022-11-20T00:33:45;26.93;;;12.63;;
71207;SDS011;58938;49.868;8.646;2022-11-20T00:36:12;26.40;;;12.07;;
71207;SDS011;58938;49.868;8.646;2022-11-20T00:38:39;29.35;;;13.55;;
71207;SDS011;58938;49.868;8.646;2022-11-20T00:41:06;27.02;;;13.30;;
71207;SDS011;58938;49.868;8.646;2022-11-20T00:43:34;26.70;;;12.80;;
71207;SDS011;58938;49.868;8.646;2022-11-20T00:46:03;26.23;;;11.23;;
71207;SDS011;58938;49.868;8.646;2022-11-20T00:48:31;25.50;;;11.50;;
71207;SDS011;58938;49.868;8.646;2022-11-20T00:50:56;28.03;;;13.03;;
71207;SDS011;58938;49.868;8.646;2022-11-20T00:53:23;25.17;;;12.30;;
71207;SDS011;58938;49.868;8.646;2022-11-20T00:55:52;25.50;;;12.50;;
71207;SDS011;58938;49.868;8.646;2022-11-20T00:58:19;28.27;;;12.60;;
71207;SDS011;58938;49.868;8.646;2022-11-20T01:00:45;27.43;;;13.43;;
71207;SDS011;58938;49.868;8.646;2022-11-20T01:03:11;25.77;;;11.40;;
71207;SDS011;58938;49.868;8.646;2022-11-20T01:05:36;25.53;;;12.30;;
71207;SDS011;58938;49.868;8.646;2022-11-20T01:08:02;25.77;;;11.77;;
71207;SDS011;58938;49.868;8.646;2022-11-20T01:10:28;28.10;;;12.77;;
71207;SDS011;58938;49.868;8.646;2022-11-20T01:12:54;24.90;;;11.70;;
71207;SDS011;58938;49.868;8.646;2022-11-20T01:15:39;25.75;;;12.20;;
71207;SDS011;58938;49.868;8.646;2022-11-20T01:18:05;25.37;;;11.07;;
71207;SDS011;58938;49.868;8.646;2022-11-20T01:20:33;27.20;;;12.07;;
71207;SDS011;58938;49.868;8.646;2022-11-20T01:23:00;23.90;;;11.02;;
71207;SDS011;58938;49.868;8.646;2022-11-20T01:25:27;24.92;;;10.88;;
71207;SDS011;58938;49.868;8.646;2022-11-20T01:27:53;24.40;;;10.67;;
71207;SDS011;58938;49.868;8.646;2022-11-20T01:30:18;19.55;;;9.35;;
71207;SDS011;58938;49.868;8.646;2022-11-20T01:32:44;22.80;;;11.00;;
71207;SDS011;58938;49.868;8.646;2022-11-20T01:35:09;24.60;;;11.07;;
71207;SDS011;58938;49.868;8.646;2022-11-20T01:37:35;23.73;;;10.33;;
71207;SDS011;58938;49.868;8.646;2022-11-20T01:40:00;29.58;;;11.02;;
71207;SDS011;58938;49.868;8.646;2022-11-20T01:42:26;23.03;;;10.73;;
71207;SDS011;58938;49.868;8.646;2022-11-20T01:48:21;22.10;;;11.30;;
71207;SDS011;58938;49.868;8.646;2022-11-20T01:50:48;22.40;;;10.30;;
71207;SDS011;58938;49.868;8.646;2022-11-20T01:53:16;25.48;;;10.82;;
71207;SDS011;58938;49.868;8.646;2022-11-20T01:55:47;20.30;;;9.93;;
71207;SDS011;58938;49.868;8.646;2022-11-20T01:58:16;21.38;;;10.93;;
71207;SDS011;58938;49.868;8.646;2022-11-20T02:00:46;21.10;;;10.00;;
71207;SDS011;58938;49.868;8.646;2022-11-20T02:03:12;20.83;;;9.63;;
71207;SDS011;58938;49.868;8.646;2022-11-20T02:06:27;22.15;;;10.98;;
71207;SDS011;58938;49.868;8.646;2022-11-20T02:08:42;19.83;;;10.57;;
71207;SDS011;58938;49.868;8.646;2022-11-20T02:11:08;23.17;;;10.53;;
71207;SDS011;58938;49.868;8.646;2022-11-20T02:13:34;21.23;;;9.13;;
71207;SDS011;58938;49.868;8.646;2022-11-20T02:16:31;24.30;;;12.02;;
71207;SDS011;58938;49.868;8.646;2022-11-20T02:19:01;21.07;;;9.90;;
71207;SDS011;58938;49.868;8.646;2022-11-20T02:24:19;19.55;;;10.40;;
71207;SDS011;58938;49.868;8.646;2022-11-20T02:26:49;22.48;;;10.38;;
71207;SDS011;58938;49.868;8.646;2022-11-20T02:29:24;19.38;;;10.18;;
71207;SDS011;58938;49.868;8.646;2022-11-20T02:32:18;20.60;;;9.67;;
71207;SDS011;58938;49.868;8.646;2022-11-20T02:34:45;19.48;;;8.88;;
71207;SDS011;58938;49.868;8.646;2022-11-20T02:37:10;18.17;;;8.53;;
71207;SDS011;58938;49.868;8.646;2022-11-20T02:39:37;18.52;;;7.60;;
71207;SDS011;58938;49.868;8.646;2022-11-20T02:42:02;16.95;;;7.70;;
71207;SDS011;58938;49.868;8.646;2022-11-20T02:44:28;14.87;;;6.87;;
71207;SDS011;58938;49.868;8.646;2022-11-20T02:46:56;17.27;;;8.43;;
71207;SDS011;58938;49.868;8.646;2022-11-20T02:49:23;16.45;;;7.72;;
71207;SDS011;58938;49.868;8.646;2022-11-20T02:51:49;20.87;;;10.33;;
71207;SDS011;58938;49.868;8.646;2022-11-20T02:54:14;21.57;;;10.57;;
71207;SDS011;58938;49.868;8.646;2022-11-20T02:56:40;23.80;;;11.20;;
71207;SDS011;58938;49.868;8.646;2022-11-20T02:59:06;26.58;;;11.90;;
71207;SDS011;58938;49.868;8.646;2022-11-20T03:01:32;24.80;;;11.52;;
71207;SDS011;58938;49.868;8.646;2022-11-20T03:03:57;26.70;;;11.73;;
71207;SDS011;58938;49.868;8.646;2022-11-20T03:06:23;27.40;;;11.77;;
71207;SDS011;58938;49.868;8.646;2022-11-20T03:08:48;25.70;;;12.73;;
71207;SDS011;58938;49.868;8.646;2022-11-20T03:11:14;26.50;;;12.10;;
71207;SDS011;58938;49.868;8.646;2022-11-20T03:13:40;27.25;;;11.48;;
71207;SDS011;58938;49.868;8.646;2022-11-20T03:16:09;25.33;;;11.83;;
71207;SDS011;58938;49.868;8.646;2022-11-20T03:18:36;26.23;;;12.18;;
71207;SDS011;58938;49.868;8.646;2022-11-20T03:21:02;29.75;;;13.45;;
71207;SDS011;58938;49.868;8.646;2022-11-20T03:23:29;27.53;;;11.90;;
71207;SDS011;58938;49.868;8.646;2022-11-20T03:25:56;27.75;;;12.82;;
71207;SDS011;58938;49.868;8.646;2022-11-20T03:28:32;29.40;;;12.38;;
71207;SDS011;58938;49.868;8.646;2022-11-20T03:30:57;32.23;;;14.30;;
71207;SDS011;58938;49.868;8.646;2022-11-20T03:33:23;28.90;;;13.95;;
71207;SDS011;58938;49.868;8.646;2022-11-20T03:35:48;30.50;;;13.07;;
71207;SDS011;58938;49.868;8.646;2022-11-20T03:38:14;29.03;;;12.77;;
71207;SDS011;58938;49.868;8.646;2022-11-20T03:40:40;28.70;;;13.18;;
71207;SDS011;58938;49.868;8.646;2022-11-20T03:43:05;26.67;;;12.33;;
71207;SDS011;58938;49.868;8.646;2022-11-20T03:45:31;29.57;;;12.17;;
71207;SDS011;58938;49.868;8.646;2022-11-20T03:47:56;33.80;;;14.90;;
71207;SDS011;58938;49.868;8.646;2022-11-20T03:50:22;28.50;;;12.47;;
71207;SDS011;58938;49.868;8.646;2022-11-20T03:52:48;28.00;;;11.50;;
71207;SDS011;58938;49.868;8.646;2022-11-20T03:55:13;31.30;;;14.30;;
71207;SDS011;58938;49.868;8.646;2022-11-20T03:57:39;31.73;;;12.30;;
71207;SDS011;58938;49.868;8.646;2022-11-20T04:00:04;29.35;;;12.07;;
71207;SDS011;58938;49.868;8.646;2022-11-20T04:02:30;27.80;;;12.75;;
71207;SDS011;58938;49.868;8.646;2022-11-20T04:04:56;28.30;;;11.17;;
71207;SDS011;58938;49.868;8.646;2022-11-20T04:07:21;30.47;;;11.83;;
71207;SDS011;58938;49.868;8.646;2022-11-20T04:09:47;25.10;;;11.20;;
71207;SDS011;58938;49.868;8.646;2022-11-20T04:12:13;27.27;;;11.32;;
71207;SDS011;58938;49.868;8.646;2022-11-20T04:14:38;28.87;;;12.37;;
71207;SDS011;58938;49.868;8.646;2022-11-20T04:17:04;27.92;;;11.38;;
71207;SDS011;58938;49.868;8.646;2022-11-20T04:19:29;28.70;;;12.00;;
71207;SDS011;58938;49.868;8.646;2022-11-20T04:21:55;27.30;;;13.00;;
71207;SDS011;58938;49.868;8.646;2022-11-20T04:24:20;28.67;;;12.50;;
71207;SDS011;58938;49.868;8.646;2022-11-20T04:26:46;26.83;;;12.07;;
71207;SDS011;58938;49.868;8.646;2022-11-20T04:29:11;24.13;;;10.77;;
71207;SDS011;58938;49.868;8.646;2022-11-20T04:31:37;28.58;;;11.00;;
71207;SDS011;58938;49.868;8.646;2022-11-20T04:34:04;26.35;;;12.15;;
71207;SDS011;58938;49.868;8.646;2022-11-20T04:36:30;27.57;;;11.27;;
71207;SDS011;58938;49.868;8.646;2022-11-20T04:38:57;26.90;;;12.32;;
71207;SDS011;58938;49.868;8.646;2022-11-20T04:41:29;32.08;;;12.90;;
71207;SDS011;58938;49.868;8.646;2022-11-20T04:43:58;30.83;;;13.32;;
71207;SDS011;58938;49.868;8.646;2022-11-20T04:46:27;32.78;;;13.07;;
71207;SDS011;58938;49.868;8.646;2022-11-20T04:48:55;28.70;;;12.10;;
71207;SDS011;58938;49.868;8.646;2022-11-20T04:51:20;31.50;;;11.90;;
71207;SDS011;58938;49.868;8.646;2022-11-20T04:53:49;30.17;;;13.57;;
71207;SDS011;58938;49.868;8.646;2022-11-20T04:56:15;26.55;;;12.32;;
71207;SDS011;58938;49.868;8.646;2022-11-20T04:58:41;28.07;;;12.27;;
71207;SDS011;58938;49.868;8.646;2022-11-20T05:01:10;30.53;;;12.10;;
71207;SDS011;58938;49.868;8.646;2022-11-20T05:03:38;30.98;;;13.75;;
71207;SDS011;58938;49.868;8.646;2022-11-20T05:06:09;29.10;;;12.07;;
71207;SDS011;58938;49.868;8.646;2022-11-20T05:08:35;29.58;;;12.70;;
71207;SDS011;58938;49.868;8.646;2022-11-20T05:11:02;32.17;;;13.77;;
71207;SDS011;58938;49.868;8.646;2022-11-20T05:13:29;34.17;;;14.95;;
71207;SDS011;58938;49.868;8.646;2022-11-20T05:15:55;33.20;;;14.00;;
71207;SDS011;58938;49.868;8.646;2022-11-20T05:18:20;36.08;;;14.57;;
71207;SDS011;58938;49.868;8.646;2022-11-20T05:20:46;34.10;;;13.10;;
71207;SDS011;58938;49.868;8.646;2022-11-20T05:23:11;32.67;;;13.10;;
71207;SDS011;58938;49.868;8.646;2022-11-20T05:25:37;31.45;;;13.32;;
71207;SDS011;58938;49.868;8.646;2022-11-20T05:28:02;31.83;;;12.80;;
71207;SDS011;58938;49.868;8.646;2022-11-20T05:30:28;34.42;;;13.70;;
71207;SDS011;58938;49.868;8.646;2022-11-20T05:32:55;33.97;;;13.23;;
71207;SDS011;58938;49.868;8.646;2022-11-20T05:35:21;30.47;;;13.60;;
71207;SDS011;58938;49.868;8.646;2022-11-20T05:37:46;34.45;;;13.10;;
71207;SDS011;58938;49.868;8.646;2022-11-20T05:40:12;31.97;;;13.93;;
71207;SDS011;58938;49.868;8.646;2022-11-20T05:42:38;35.92;;;14.35;;
71207;SDS011;58938;49.868;8.646;2022-11-20T05:45:03;33.73;;;14.03;;
71207;SDS011;58938;49.868;8.646;2022-11-20T05:47:33;36.53;;;14.02;;
71207;SDS011;58938;49.868;8.646;2022-11-20T05:49:59;26.42;;;11.55;;
71207;SDS011;58938;49.868;8.646;2022-11-20T05:52:29;32.53;;;12.90;;
71207;SDS011;58938;49.868;8.646;2022-11-20T05:54:55;31.05;;;12.70;;
71207;SDS011;58938;49.868;8.646;2022-11-20T05:57:21;29.63;;;13.40;;
71207;SDS011;58938;49.868;8.646;2022-11-20T05:59:47;30.97;;;12.10;;
71207;SDS011;58938;49.868;8.646;2022-11-20T06:02:12;26.75;;;10.63;;
71207;SDS011;58938;49.868;8.646;2022-11-20T06:04:38;25.97;;;11.13;;
71207;SDS011;58938;49.868;8.646;2022-11-20T06:07:06;29.27;;;13.07;;
71207;SDS011;58938;49.868;8.646;2022-11-20T06:09:32;32.00;;;13.03;;
71207;SDS011;58938;49.868;8.646;2022-11-20T06:11:58;30.17;;;13.95;;
71207;SDS011;58938;49.868;8.646;2022-11-20T06:14:23;35.30;;;13.20;;
71207;SDS011;58938;49.868;8.646;2022-11-20T06:16:49;34.55;;;14.77;;
71207;SDS011;58938;49.868;8.646;2022-11-20T06:19:15;26.87;;;11.73;;
71207;SDS011;58938;49.868;8.646;2022-11-20T06:21:40;31.02;;;13.15;;
71207;SDS011;58938;49.868;8.646;2022-11-20T06:24:06;29.13;;;11.83;;
71207;SDS011;58938;49.868;8.646;2022-11-20T06:26:34;30.50;;;13.48;;
71207;SDS011;58938;49.868;8.646;2022-11-20T06:29:00;30.93;;;13.40;;
71207;SDS011;58938;49.868;8.646;2022-11-20T06:31:25;33.65;;;14.32;;
71207;SDS011;58938;49.868;8.646;2022-11-20T06:33:51;36.97;;;15.50;;
71207;SDS011;58938;49.868;8.646;2022-11-20T06:36:18;35.15;;;14.65;;
71207;SDS011;58938;49.868;8.646;2022-11-20T06:38:45;34.92;;;13.65;;
71207;SDS011;58938;49.868;8.646;2022-11-20T06:41:12;35.75;;;14.90;;
71207;SDS011;58938;49.868;8.646;2022-11-20T06:43:39;34.90;;;14.97;;
71207;SDS011;58938;49.868;8.646;2022-11-20T06:46:05;31.33;;;13.15;;
71207;SDS011;58938;49.868;8.646;2022-11-20T06:48:31;32.53;;;13.70;;
71207;SDS011;58938;49.868;8.646;2022-11-20T06:50:57;30.33;;;12.68;;
71207;SDS011;58938;49.868;8.646;2022-11-20T06:53:23;25.48;;;11.77;;
71207;SDS011;58938;49.868;8.646;2022-11-20T06:55:49;28.67;;;13.30;;
71207;SDS011;58938;49.868;8.646;2022-11-20T06:58:16;26.27;;;12.23;;
71207;SDS011;58938;49.868;8.646;2022-11-20T07:00:43;27.07;;;11.80;;
71207;SDS011;58938;49.868;8.646;2022-11-20T07:03:09;26.50;;;12.05;;
71207;SDS011;58938;49.868;8.646;2022-11-20T07:05:36;30.02;;;11.23;;
71207;SDS011;58938;49.868;8.646;2022-11-20T07:08:03;26.52;;;10.98;;
71207;SDS011;58938;49.868;8.646;2022-11-20T07:10:29;30.20;;;14.13;;
71207;SDS011;58938;49.868;8.646;2022-11-20T07:12:55;29.20;;;11.83;;
71207;SDS011;58938;49.868;8.646;2022-11-20T07:15:21;29.40;;;12.77;;
71207;SDS011;58938;49.868;8.646;2022-11-20T07:17:49;28.10;;;12.77;;
71207;SDS011;58938;49.868;8.646;2022-11-20T07:20:15;29.03;;;13.40;;
71207;SDS011;58938;49.868;8.646;2022-11-20T07:22:41;24.95;;;10.80;;
71207;SDS011;58938;49.868;8.646;2022-11-20T07:25:08;31.10;;;13.85;;
71207;SDS011;58938;49.868;8.646;2022-11-20T07:27:36;24.33;;;11.53;;
71207;SDS011;58938;49.868;8.646;2022-11-20T07:30:02;30.67;;;13.00;;
71207;SDS011;58938;49.868;8.646;2022-11-20T07:32:28;21.50;;;10.75;;
71207;SDS011;58938;49.868;8.646;2022-11-20T07:34:54;32.17;;;13.57;;
71207;SDS011;58938;49.868;8.646;2022-11-20T07:37:19;29.70;;;12.67;;
71207;SDS011;58938;49.868;8.646;2022-11-20T07:39:45;32.28;;;13.25;;
71207;SDS011;58938;49.868;8.646;2022-11-20T07:42:11;31.27;;;13.10;;
71207;SDS011;58938;49.868;8.646;2022-11-20T07:44:37;29.27;;;12.73;;
71207;SDS011;58938;49.868;8.646;2022-11-20T07:47:03;31.83;;;12.82;;
71207;SDS011;58938;49.868;8.646;2022-11-20T07:49:28;28.37;;;12.67;;
71207;SDS011;58938;49.868;8.646;2022-11-20T07:51:54;25.37;;;11.47;;
71207;SDS011;58938;49.868;8.646;2022-11-20T07:54:20;27.77;;;11.88;;
71207;SDS011;58938;49.868;8.646;2022-11-20T07:56:46;34.10;;;14.65;;
71207;SDS011;58938;49.868;8.646;2022-11-20T07:59:12;30.33;;;13.60;;
71207;SDS011;58938;49.868;8.646;2022-11-20T08:01:38;31.05;;;13.07;;
71207;SDS011;58938;49.868;8.646;2022-11-20T08:04:04;31.52;;;14.30;;
71207;SDS011;58938;49.868;8.646;2022-11-20T08:06:30;31.20;;;12.80;;
71207;SDS011;58938;49.868;8.646;2022-11-20T08:08:56;29.53;;;12.33;;
71207;SDS011;58938;49.868;8.646;2022-11-20T08:11:22;27.40;;;12.43;;
71207;SDS011;58938;49.868;8.646;2022-11-20T08:14:06;29.03;;;12.03;;
71207;SDS011;58938;49.868;8.646;2022-11-20T08:16:44;30.02;;;13.60;;
71207;SDS011;58938;49.868;8.646;2022-11-20T08:19:15;32.05;;;13.35;;
71207;SDS011;58938;49.868;8.646;2022-11-20T08:21:42;25.10;;;11.68;;
71207;SDS011;58938;49.868;8.646;2022-11-20T08:24:09;27.98;;;11.75;;
71207;SDS011;58938;49.868;8.646;2022-11-20T08:26:36;31.27;;;12.43;;
71207;SDS011;58938;49.868;8.646;2022-11-20T08:29:03;27.50;;;11.93;;
71207;SDS011;58938;49.868;8.646;2022-11-20T08:31:29;27.10;;;12.20;;
71207;SDS011;58938;49.868;8.646;2022-11-20T08:33:55;27.20;;;12.07;;
71207;SDS011;58938;49.868;8.646;2022-11-20T08:36:21;28.00;;;12.73;;
71207;SDS011;58938;49.868;8.646;2022-11-20T08:38:48;26.67;;;11.73;;
71207;SDS011;58938;49.868;8.646;2022-11-20T08:41:15;29.58;;;12.68;;
71207;SDS011;58938;49.868;8.646;2022-11-20T08:43:57;28.75;;;12.48;;
71207;SDS011;58938;49.868;8.646;2022-11-20T08:46:38;29.90;;;13.53;;
71207;SDS011;58938;49.868;8.646;2022-11-20T08:49:06;29.38;;;12.05;;
71207;SDS011;58938;49.868;8.646;2022-11-20T08:51:34;29.20;;;13.95;;
71207;SDS011;58938;49.868;8.646;2022-11-20T08:54:00;29.27;;;12.18;;
71207;SDS011;58938;49.868;8.646;2022-11-20T08:56:26;28.80;;;13.60;;
71207;SDS011;58938;49.868;8.646;2022-11-20T08:58:52;25.92;;;10.93;;
71207;SDS011;58938;49.868;8.646;2022-11-20T09:01:18;25.23;;;11.00;;
71207;SDS011;58938;49.868;8.646;2022-11-20T09:03:45;26.50;;;12.35;;
71207;SDS011;58938;49.868;8.646;2022-11-20T09:06:10;28.67;;;12.05;;
71207;SDS011;58938;49.868;8.646;2022-11-20T09:08:36;31.08;;;13.73;;
71207;SDS011;58938;49.868;8.646;2022-11-20T09:11:03;26.13;;;11.23;;
71207;SDS011;58938;49.868;8.646;2022-11-20T09:13:29;26.75;;;12.10;;
71207;SDS011;58938;49.868;8.646;2022-11-20T09:16:00;25.15;;;11.85;;
71207;SDS011;58938;49.868;8.646;2022-11-20T09:18:28;28.20;;;10.70;;
71207;SDS011;58938;49.868;8.646;2022-11-20T09:20:58;19.07;;;8.70;;
71207;SDS011;58938;49.868;8.646;2022-11-20T09:23:25;22.75;;;10.48;;
71207;SDS011;58938;49.868;8.646;2022-11-20T09:25:51;23.42;;;10.93;;
71207;SDS011;58938;49.868;8.646;2022-11-20T09:28:17;22.38;;;10.23;;
71207;SDS011;58938;49.868;8.646;2022-11-20T09:30:43;24.52;;;11.07;;
71207;SDS011;58938;49.868;8.646;2022-11-20T09:33:09;24.37;;;10.40;;
71207;SDS011;58938;49.868;8.646;2022-11-20T09:35:35;23.65;;;10.32;;
71207;SDS011;58938;49.868;8.646;2022-11-20T09:38:07;26.37;;;11.93;;
71207;SDS011;58938;49.868;8.646;2022-11-20T09:40:34;25.35;;;12.40;;
71207;SDS011;58938;49.868;8.646;2022-11-20T09:46:05;24.20;;;11.15;;
71207;SDS011;58938;49.868;8.646;2022-11-20T09:48:42;25.07;;;10.23;;
71207;SDS011;58938;49.868;8.646;2022-11-20T09:51:37;22.48;;;9.63;;
71207;SDS011;58938;49.868;8.646;2022-11-20T09:54:35;23.85;;;11.38;;
71207;SDS011;58938;49.868;8.646;2022-11-20T09:57:03;25.95;;;11.45;;
71207;SDS011;58938;49.868;8.646;2022-11-20T10:04:53;21.05;;;10.10;;
71207;SDS011;58938;49.868;8.646;2022-11-20T10:07:30;23.67;;;11.02;;
71207;SDS011;58938;49.868;8.646;2022-11-20T10:10:04;23.15;;;9.15;;
71207;SDS011;58938;49.868;8.646;2022-11-20T10:18:07;26.52;;;11.80;;
71207;SDS011;58938;49.868;8.646;2022-11-20T10:20:43;24.58;;;11.05;;
71207;SDS011;58938;49.868;8.646;2022-11-20T10:26:14;27.30;;;11.33;;
71207;SDS011;58938;49.868;8.646;2022-11-20T10:28:59;25.42;;;10.50;;
71207;SDS011;58938;49.868;8.646;2022-11-20T10:31:36;22.30;;;11.35;;
71207;SDS011;58938;49.868;8.646;2022-11-20T10:34:48;26.58;;;11.45;;
71207;SDS011;58938;49.868;8.646;2022-11-20T10:37:00;27.33;;;12.25;;
71207;SDS011;58938;49.868;8.646;2022-11-20T10:39:39;27.80;;;12.80;;
71207;SDS011;58938;49.868;8.646;2022-11-20T10:42:24;26.35;;;11.55;;
71207;SDS011;58938;49.868;8.646;2022-11-20T10:45:40;27.10;;;12.45;;
71207;SDS011;58938;49.868;8.646;2022-11-20T10:47:45;20.20;;;9.50;;
71207;SDS011;58938;49.868;8.646;2022-11-20T10:50:20;27.13;;;11.07;;
71207;SDS011;58938;49.868;8.646;2022-11-20T10:52:52;26.35;;;13.05;;
71207;SDS011;58938;49.868;8.646;2022-11-20T10:58:22;27.75;;;11.98;;
71207;SDS011;58938;49.868;8.646;2022-11-20T11:01:14;24.63;;;11.33;;
71207;SDS011;58938;49.868;8.646;2022-11-20T11:03:42;24.05;;;11.63;;
71207;SDS011;58938;49.868;8.646;2022-11-20T11:08:53;24.48;;;10.60;;
71207;SDS011;58938;49.868;8.646;2022-11-20T11:11:28;24.65;;;11.32;;
71207;SDS011;58938;49.868;8.646;2022-11-20T11:14:06;23.00;;;11.50;;
71207;SDS011;58938;49.868;8.646;2022-11-20T11:16:33;26.52;;;11.75;;
71207;SDS011;58938;49.868;8.646;2022-11-20T11:19:13;26.33;;;12.48;;
71207;SDS011;58938;49.868;8.646;2022-11-20T11:21:50;29.33;;;12.95;;
71207;SDS011;58938;49.868;8.646;2022-11-20T11:24:25;28.77;;;13.18;;
71207;SDS011;58938;49.868;8.646;2022-11-20T11:26:58;27.60;;;12.80;;
71207;SDS011;58938;49.868;8.646;2022-11-20T11:29:42;27.38;;;12.05;;
71207;SDS011;58938;49.868;8.646;2022-11-20T11:32:17;26.92;;;13.35;;
71207;SDS011;58938;49.868;8.646;2022-11-20T11:35:06;27.60;;;12.70;;
71207;SDS011;58938;49.868;8.646;2022-11-20T11:37:37;28.13;;;11.90;;
71207;SDS011;58938;49.868;8.646;2022-11-20T11:40:13;29.80;;;12.57;;
71207;SDS011;58938;49.868;8.646;2022-11-20T11:46:05;25.65;;;11.80;;
71207;SDS011;58938;49.868;8.646;2022-11-20T11:49:13;24.67;;;11.27;;
71207;SDS011;58938;49.868;8.646;2022-11-20T11:54:34;25.53;;;10.37;;
71207;SDS011;58938;49.868;8.646;2022-11-20T11:57:10;24.83;;;12.15;;
71207;SDS011;58938;49.868;8.646;2022-11-20T12:00:01;27.48;;;11.77;;
71207;SDS011;58938;49.868;8.646;2022-11-20T12:02:38;25.45;;;11.63;;
71207;SDS011;58938;49.868;8.646;2022-11-20T12:08:43;23.00;;;10.73;;
71207;SDS011;58938;49.868;8.646;2022-11-20T12:16:18;25.27;;;11.07;;
71207;SDS011;58938;49.868;8.646;2022-11-20T12:18:46;24.10;;;10.82;;
71207;SDS011;58938;49.868;8.646;2022-11-20T12:24:03;27.48;;;11.68;;
71207;SDS011;58938;49.868;8.646;2022-11-20T12:26:56;26.00;;;12.52;;
71207;SDS011;58938;49.868;8.646;2022-11-20T12:30:01;23.10;;;9.93;;
71207;SDS011;58938;49.868;8.646;2022-11-20T12:35:05;26.90;;;11.68;;
71207;SDS011;58938;49.868;8.646;2022-11-20T12:37:48;28.75;;;11.57;;
71207;SDS011;58938;49.868;8.646;2022-11-20T12:40:45;26.92;;;12.50;;
71207;SDS011;58938;49.868;8.646;2022-11-20T12:43:23;24.00;;;12.20;;
71207;SDS011;58938;49.868;8.646;2022-11-20T13:08:33;23.17;;;11.48;;
71207;SDS011;58938;49.868;8.646;2022-11-20T13:16:36;25.63;;;12.20;;
71207;SDS011;58938;49.868;8.646;2022-11-20T13:19:14;25.33;;;11.45;;
71207;SDS011;58938;49.868;8.646;2022-11-20T13:21:42;23.77;;;11.95;;
71207;SDS011;58938;49.868;8.646;2022-11-20T13:26:48;27.05;;;13.02;;
71207;SDS011;58938;49.868;8.646;2022-11-20T13:29:29;26.93;;;11.53;;
71207;SDS011;58938;49.868;8.646;2022-11-20T13:32:02;30.70;;;12.40;;
71207;SDS011;58938;49.868;8.646;2022-11-20T13:34:37;28.10;;;12.02;;
71207;SDS011;58938;49.868;8.646;2022-11-20T13:37:03;28.13;;;13.40;;
71207;SDS011;58938;49.868;8.646;2022-11-20T13:39:35;27.25;;;11.90;;
71207;SDS011;58938;49.868;8.646;2022-11-20T13:42:03;28.70;;;12.63;;
71207;SDS011;58938;49.868;8.646;2022-11-20T13:44:53;27.37;;;11.53;;
71207;SDS011;58938;49.868;8.646;2022-11-20T13:47:20;31.00;;;13.07;;
71207;SDS011;58938;49.868;8.646;2022-11-20T13:49:54;29.30;;;13.25;;
71207;SDS011;58938;49.868;8.646;2022-11-20T14:00:48;29.33;;;13.40;;
71207;SDS011;58938;49.868;8.646;2022-11-20T14:03:21;28.70;;;13.43;;
71207;SDS011;58938;49.868;8.646;2022-11-20T14:05:59;28.65;;;13.00;;
71207;SDS011;58938;49.868;8.646;2022-11-20T14:11:05;29.80;;;12.20;;
71207;SDS011;58938;49.868;8.646;2022-11-20T14:13:37;36.10;;;14.32;;
71207;SDS011;58938;49.868;8.646;2022-11-20T14:16:02;28.23;;;14.38;;
71207;SDS011;58938;49.868;8.646;2022-11-20T14:18:28;31.63;;;14.47;;
71207;SDS011;58938;49.868;8.646;2022-11-20T14:20:54;30.77;;;12.83;;
71207;SDS011;58938;49.868;8.646;2022-11-20T14:23:26;24.25;;;11.88;;
71207;SDS011;58938;49.868;8.646;2022-11-20T14:25:53;24.02;;;11.90;;
71207;SDS011;58938;49.868;8.646;2022-11-20T14:28:23;29.23;;;13.27;;
71207;SDS011;58938;49.868;8.646;2022-11-20T14:30:51;26.90;;;11.52;;
71207;SDS011;58938;49.868;8.646;2022-11-20T14:33:17;24.83;;;11.55;;
71207;SDS011;58938;49.868;8.646;2022-11-20T14:35:48;28.00;;;12.48;;
71207;SDS011;58938;49.868;8.646;2022-11-20T14:38:16;28.95;;;13.07;;
71207;SDS011;58938;49.868;8.646;2022-11-20T14:40:45;25.43;;;11.80;;
71207;SDS011;58938;49.868;8.646;2022-11-20T14:43:24;24.50;;;11.98;;
71207;SDS011;58938;49.868;8.646;2022-11-20T14:48:50;24.20;;;11.63;;
71207;SDS011;58938;49.868;8.646;2022-11-20T14:53:52;26.30;;;11.83;;
71207;SDS011;58938;49.868;8.646;2022-11-20T14:56:21;26.70;;;11.85;;
71207;SDS011;58938;49.868;8.646;2022-11-20T14:58:55;24.23;;;10.30;;
71207;SDS011;58938;49.868;8.646;2022-11-20T15:01:25;23.90;;;10.98;;
71207;SDS011;58938;49.868;8.646;2022-11-20T15:03:58;22.25;;;11.23;;
71207;SDS011;58938;49.868;8.646;2022-11-20T15:06:25;26.23;;;10.65;;
71207;SDS011;58938;49.868;8.646;2022-11-20T15:08:52;20.75;;;10.52;;
71207;SDS011;58938;49.868;8.646;2022-11-20T15:11:18;23.60;;;10.13;;
71207;SDS011;58938;49.868;8.646;2022-11-20T15:13:52;24.05;;;10.60;;
71207;SDS011;58938;49.868;8.646;2022-11-20T15:16:18;20.65;;;10.38;;
71207;SDS011;58938;49.868;8.646;2022-11-20T15:18:45;20.40;;;9.53;;
71207;SDS011;58938;49.868;8.646;2022-11-20T15:21:12;20.73;;;9.70;;
71207;SDS011;58938;49.868;8.646;2022-11-20T15:23:41;22.40;;;11.27;;
71207;SDS011;58938;49.868;8.646;2022-11-20T15:26:08;19.85;;;10.25;;
71207;SDS011;58938;49.868;8.646;2022-11-20T15:28:44;21.73;;;10.15;;
71207;SDS011;58938;49.868;8.646;2022-11-20T15:31:16;21.30;;;9.67;;
71207;SDS011;58938;49.868;8.646;2022-11-20T15:33:46;22.67;;;10.13;;
71207;SDS011;58938;49.868;8.646;2022-11-20T15:36:11;26.85;;;11.27;;
71207;SDS011;58938;49.868;8.646;2022-11-20T15:38:37;21.07;;;9.90;;
71207;SDS011;58938;49.868;8.646;2022-11-20T15:41:03;19.87;;;10.17;;
71207;SDS011;58938;49.868;8.646;2022-11-20T15:43:29;19.20;;;9.25;;
71207;SDS011;58938;49.868;8.646;2022-11-20T15:45:55;19.85;;;9.35;;
71207;SDS011;58938;49.868;8.646;2022-11-20T15:48:26;20.97;;;10.03;;
71207;SDS011;58938;49.868;8.646;2022-11-20T15:53:28;17.65;;;8.93;;
71207;SDS011;58938;49.868;8.646;2022-11-20T15:55:55;17.07;;;9.00;;
71207;SDS011;58938;49.868;8.646;2022-11-20T15:58:21;19.70;;;9.57;;
71207;SDS011;58938;49.868;8.646;2022-11-20T16:00:48;18.35;;;9.52;;
71207;SDS011;58938;49.868;8.646;2022-11-20T16:03:14;15.67;;;8.30;;
71207;SDS011;58938;49.868;8.646;2022-11-20T16:05:41;19.83;;;9.80;;
71207;SDS011;58938;49.868;8.646;2022-11-20T16:08:07;21.63;;;8.23;;
71207;SDS011;58938;49.868;8.646;2022-11-20T16:10:33;20.57;;;9.57;;
71207;SDS011;58938;49.868;8.646;2022-11-20T16:13:00;18.60;;;8.85;;
71207;SDS011;58938;49.868;8.646;2022-11-20T16:15:50;15.93;;;7.93;;